Bethlehem, New York
Current Conditions -  °F | °C
As of 7:51 AM on Thursday 18 Dec 2014 (Local Time) from KALB Reporting Station
Overcast Overcast  
Wind Chill: 26°   Ceiling: 2500
Heat Index: 35°   Visibility: 10mi
Dew Point: 26°   Wind: 15mph
Humidity: 70%   Direction: 300°WNW
Pressure: 29.9"   Gusts: 22mph
Location:  42.6018°N, 73.8686°W
Report Text: KALB 181251Z 30013G19KT 10SM BKN025 OVC040 02/M03 A2990 RMK AO2 SNE1158 SLP128 BKN V OVC P0000 T00171033
Loading
Personal Weather Stations






























Interactive Weather Map New forecast layout! Learn more

10-Day Weather Forecast

Advertisements
Track Severe Weather on mobile